Time;durP1;ratioP1;P1;durP2;ratioP2;P2;SDS_P1;SDS_P2;PMS_P1;PMS_P2;Temp;Humidity;BMP_temperature;BMP_pressure;BME280_temperature;BME280_humidity;BME280_pressure;Samples;Min_cycle;Max_cycle;Signal;HPM_P1;HPM_P2
2022/04/17 00:02:00;;;;;;;5.43;4.40;;;;;;;16.00;64.83;99801.19;4954033;22;20415;-69
2022/04/17 00:04:25;;;;;;;6.63;4.90;;;;;;;15.69;65.77;99760.94;4320338;28;10000640;-65
2022/04/17 00:06:51;;;;;;;6.22;4.80;;;;;;;16.28;65.93;99832.16;5012034;28;20034;-65
2022/04/17 00:09:17;;;;;;;5.60;4.63;;;;;;;15.97;65.27;99770.53;5013578;28;20038;-66
2022/04/17 00:11:42;;;;;;;7.82;4.40;;;;;;;16.17;65.94;99827.59;5012984;28;20038;-65
2022/04/17 00:14:10;;;;;;;9.32;4.80;;;;;;;15.93;66.85;99789.56;5006101;28;20457;-66
2022/04/17 00:16:35;;;;;;;9.00;5.32;;;;;;;15.84;66.94;99787.50;4993523;28;20030;-65
2022/04/17 00:19:01;;;;;;;8.18;5.22;;;;;;;15.94;67.77;99802.34;4994570;28;20482;-66
2022/04/17 00:21:26;;;;;;;6.05;5.38;;;;;;;16.11;68.48;99832.19;4992979;28;20528;-65
2022/04/17 00:23:52;;;;;;;7.22;5.10;;;;;;;15.79;68.57;99789.47;4993663;28;20030;-66
2022/04/17 00:26:18;;;;;;;7.82;5.43;;;;;;;15.88;68.78;99771.06;5009611;28;20027;-65
2022/04/17 00:28:44;;;;;;;7.05;6.10;;;;;;;16.06;68.65;99806.81;4994440;28;20491;-65
2022/04/17 00:31:09;;;;;;;9.27;5.43;;;;;;;16.00;69.08;99807.13;4994862;28;20022;-66
2022/04/17 00:33:34;;;;;;;9.30;5.80;;;;;;;16.06;69.67;99811.94;4994676;28;20037;-66
2022/04/17 00:36:00;;;;;;;6.93;6.00;;;;;;;15.85;69.87;99761.78;4994688;28;20140;-66
2022/04/17 00:38:25;;;;;;;6.15;5.40;;;;;;;15.79;70.20;99756.13;5013795;28;20034;-66
2022/04/17 00:40:54;;;;;;;9.38;6.05;;;;;;;15.94;71.78;99797.19;5014264;28;20026;-66
2022/04/17 00:43:30;;;;;;;5.95;5.35;;;;;;;15.79;71.86;99751.00;5013820;28;20026;-65
2022/04/17 00:45:56;;;;;;;6.82;6.13;;;;;;;16.00;71.82;99785.78;5012624;28;20026;-66
2022/04/17 00:48:22;;;;;;;7.38;6.15;;;;;;;15.64;71.49;99729.59;5005324;28;20030;-66
2022/04/17 00:50:51;;;;;;;7.53;6.30;;;;;;;16.13;71.49;99804.72;5012689;28;20026;-65
2022/04/17 00:53:18;;;;;;;6.90;5.75;;;;;;;16.11;71.23;99796.28;5013812;28;20072;-66
2022/04/17 00:55:46;;;;;;;8.02;6.18;;;;;;;15.86;73.07;99791.66;5013564;28;20499;-65
2022/04/17 00:58:13;;;;;;;7.22;5.90;;;;;;;15.78;73.83;99786.09;5013619;28;20022;-65
2022/04/17 01:00:40;;;;;;;9.00;5.53;;;;;;;15.67;75.96;99772.19;5027900;28;20068;-65
2022/04/17 01:03:06;;;;;;;8.85;5.55;;;;;;;15.34;76.43;99703.81;4993446;28;20055;-66
2022/04/17 01:05:32;;;;;;;7.28;5.47;;;;;;;15.32;78.69;99736.34;4994182;28;20030;-66
2022/04/17 01:07:58;;;;;;;6.28;5.57;;;;;;;15.65;79.08;99763.75;4993893;28;20092;-66
2022/04/17 01:10:24;;;;;;;5.95;5.35;;;;;;;15.39;78.94;99737.69;4993988;28;20030;-65
2022/04/17 01:12:52;;;;;;;6.60;5.53;;;;;;;15.50;79.36;99732.03;5001108;28;20073;-66
2022/04/17 01:15:18;;;;;;;6.22;5.63;;;;;;;15.35;79.51;99731.06;5011862;28;20136;-65
2022/04/17 01:17:43;;;;;;;6.35;5.25;;;;;;;15.27;81.09;99733.19;5044780;28;20559;-66
2022/04/17 01:20:10;;;;;;;6.90;5.53;;;;;;;15.34;82.62;99744.78;5013393;28;20030;-65
2022/04/17 01:22:35;;;;;;;5.95;5.35;;;;;;;15.11;83.02;99704.16;5044922;28;20076;-66
2022/04/17 01:27:45;;;;;;;8.10;5.53;;;;;;;15.59;81.75;99777.69;5012824;28;20133;-66
2022/04/17 01:30:10;;;;;;;6.03;5.40;;;;;;;15.30;83.49;99730.50;5011400;28;20531;-65
2022/04/17 01:32:36;;;;;;;6.13;5.53;;;;;;;15.69;82.71;99768.63;5013281;28;20036;-65
2022/04/17 01:35:01;;;;;;;7.28;5.90;;;;;;;15.49;83.94;99771.38;5011821;28;20037;-66
2022/04/17 01:37:26;;;;;;;8.77;5.57;;;;;;;15.46;84.87;99797.16;5044936;28;20472;-65
2022/04/17 01:39:52;;;;;;;8.60;6.30;;;;;;;15.49;84.61;99789.31;5013112;28;20064;-66
2022/04/17 01:42:17;;;;;;;8.13;6.80;;;;;;;15.28;85.36;99749.38;5011482;28;20163;-64
2022/04/17 01:44:44;;;;;;;7.53;6.63;;;;;;;15.40;85.53;99782.91;5011322;28;20392;-66
2022/04/17 01:47:09;;;;;;;7.80;6.57;;;;;;;15.37;88.53;99802.75;5012931;28;20121;-64
2022/04/17 01:49:36;;;;;;;8.65;6.97;;;;;;;15.41;89.13;99809.38;5012939;28;20475;-64
2022/04/17 01:52:02;;;;;;;11.90;7.00;;;;;;;15.18;90.08;99774.66;5011049;28;20025;-64
2022/04/17 01:54:28;;;;;;;6.68;6.05;;;;;;;15.19;90.18;99760.13;5011293;28;20065;-63
2022/04/17 01:56:54;;;;;;;10.70;6.38;;;;;;;14.96;90.42;99725.41;5011343;28;20402;-66
2022/04/17 01:59:21;;;;;;;11.20;6.60;;;;;;;15.36;91.55;99794.22;5011009;28;20129;-66
2022/04/17 02:01:47;;;;;;;8.02;6.57;;;;;;;15.17;92.53;99783.22;5012376;28;20124;-66
2022/04/17 02:04:13;;;;;;;7.15;6.45;;;;;;;15.40;92.20;99789.75;5012583;28;20216;-67
2022/04/17 02:06:42;;;;;;;8.35;6.75;;;;;;;15.17;93.84;99762.72;5012514;28;20030;-66
2022/04/17 02:09:13;;;;;;;6.80;6.10;;;;;;;15.34;93.33;99785.78;5012048;28;20037;-66
2022/04/17 02:11:39;;;;;;;7.45;6.22;;;;;;;15.29;93.96;99787.72;5010066;28;20411;-66
2022/04/17 02:14:06;;;;;;;9.18;7.30;;;;;;;15.10;93.93;99758.00;5011727;28;20484;-65
2022/04/17 02:16:32;;;;;;;8.93;7.05;;;;;;;15.07;90.42;99730.84;5012142;28;20476;-67
2022/04/17 02:18:58;;;;;;;7.93;7.10;;;;;;;15.47;90.46;99791.97;5011656;28;20125;-66
2022/04/17 02:21:24;;;;;;;8.95;6.97;;;;;;;15.15;89.93;99756.84;5012247;28;20468;-63
2022/04/17 02:23:49;;;;;;;7.13;6.53;;;;;;;15.07;90.64;99741.06;5011685;28;20078;-64
2022/04/17 02:26:18;;;;;;;9.55;6.60;;;;;;;15.31;91.04;99785.91;5012153;28;20065;-64
2022/04/17 02:28:45;;;;;;;7.55;6.75;;;;;;;15.06;92.01;99731.72;5010376;28;20033;-64
2022/04/17 02:31:12;;;;;;;7.00;6.30;;;;;;;15.15;92.46;99782.47;5012085;28;20105;-65
2022/04/17 02:33:38;;;;;;;6.97;6.25;;;;;;;15.36;91.65;99778.84;5011991;28;20037;-65
2022/04/17 02:36:04;;;;;;;7.35;6.22;;;;;;;15.21;91.46;99774.47;5010381;28;20037;-65
2022/04/17 02:38:30;;;;;;;7.65;6.13;;;;;;;15.46;89.44;99784.34;5012081;28;20112;-65
2022/04/17 02:40:56;;;;;;;8.73;6.20;;;;;;;15.20;89.61;99754.91;5011603;28;20052;-65
2022/04/17 02:43:21;;;;;;;7.47;6.07;;;;;;;15.25;88.28;99742.69;5011404;28;20419;-64
2022/04/17 02:45:49;;;;;;;6.75;5.80;;;;;;;15.53;87.73;99789.09;5010338;28;20037;-65
2022/04/17 02:48:15;;;;;;;8.88;6.10;;;;;;;15.54;87.23;99795.88;5011607;28;20026;-65
2022/04/17 02:50:40;;;;;;;7.15;6.45;;;;;;;15.34;88.92;99790.91;5010432;28;20403;-64
2022/04/17 02:53:06;;;;;;;7.22;6.60;;;;;;;15.49;89.08;99797.84;5011302;28;20044;-65
2022/04/17 02:55:32;;;;;;;6.57;5.97;;;;;;;15.35;89.19;99743.06;5010258;28;20041;-64
2022/04/17 02:57:57;;;;;;;8.73;6.47;;;;;;;15.42;89.88;99793.94;5011727;28;20029;-64
2022/04/17 03:00:31;;;;;;;7.25;6.25;;;;;;;15.05;90.95;99745.44;5011461;28;20851;-65
2022/04/17 03:05:41;;;;;;;8.20;7.32;;;;;;;15.20;92.44;99772.00;5011464;28;20032;-64
2022/04/17 03:08:07;;;;;;;7.70;7.00;;;;;;;15.57;92.67;99813.66;5009620;28;20026;-65
2022/04/17 03:10:34;;;;;;;8.50;7.30;;;;;;;15.48;92.49;99803.03;5011531;28;20773;-65
2022/04/17 03:12:59;;;;;;;8.68;6.90;;;;;;;15.40;93.01;99785.47;5009940;28;20030;-64
2022/04/17 03:15:25;;;;;;;7.30;6.60;;;;;;;15.14;93.48;99775.69;5011183;28;20419;-66
2022/04/17 03:17:51;;;;;;;9.13;7.00;;;;;;;15.44;93.57;99807.50;5009516;28;20463;-65
2022/04/17 03:20:17;;;;;;;8.90;6.85;;;;;;;15.40;93.47;99811.09;5011337;28;20457;-65
2022/04/17 03:22:42;;;;;;;12.23;7.50;;;;;;;15.28;94.28;99798.06;5010806;28;20030;-65
2022/04/17 03:25:09;;;;;;;8.63;7.70;;;;;;;15.08;95.84;99778.56;5009680;28;20111;-65
2022/04/17 03:27:34;;;;;;;9.88;7.72;;;;;;;15.12;98.72;99840.69;5009838;28;20091;-65
2022/04/17 03:30:00;;;;;;;8.52;7.63;;;;;;;15.09;99.51;99794.75;5009681;28;20065;-65
2022/04/17 03:32:25;;;;;;;9.07;8.18;;;;;;;15.54;96.84;99836.88;5009549;28;20619;-65
2022/04/17 03:34:52;;;;;;;10.95;9.02;;;;;;;15.36;96.20;99799.34;5010991;28;20049;-65
2022/04/17 03:37:17;;;;;;;11.05;7.90;;;;;;;15.32;97.58;99841.38;5010614;28;20476;-66
2022/04/17 03:39:48;;;;;;;8.52;7.13;;;;;;;15.31;97.64;99837.16;5010927;28;20140;-65
2022/04/17 03:42:15;;;;;;;7.90;7.10;;;;;;;15.10;97.17;99817.72;5009757;28;20026;-65
2022/04/17 03:44:41;;;;;;;7.10;6.40;;;;;;;15.28;96.85;99819.38;5009439;28;20125;-65
2022/04/17 03:47:06;;;;;;;9.23;6.65;;;;;;;15.12;98.53;99862.00;5010795;28;20117;-66
2022/04/17 03:49:32;;;;;;;8.18;7.07;;;;;;;15.01;99.08;99856.59;5010892;28;20030;-65
2022/04/17 03:51:58;;;;;;;8.70;7.55;;;;;;;15.10;100.00;99853.56;5010527;28;20041;-64
2022/04/17 03:54:24;;;;;;;10.27;7.78;;;;;;;14.86;100.00;99828.31;5009468;28;20514;-65
2022/04/17 03:56:49;;;;;;;9.20;7.43;;;;;;;14.84;100.00;99841.19;5009501;28;20065;-64
2022/04/17 03:59:15;;;;;;;10.45;7.80;;;;;;;15.23;100.00;99897.34;5010759;28;20033;-64
2022/04/17 04:01:40;;;;;;;8.07;7.38;;;;;;;14.96;100.00;99893.53;5009092;28;20034;-65
2022/04/17 04:04:09;;;;;;;10.00;7.60;;;;;;;14.45;100.00;99850.72;5010757;28;20491;-65
2022/04/17 04:06:34;;;;;;;10.13;8.75;;;;;;;14.05;100.00;99800.53;5010572;28;20466;-65
2022/04/17 04:09:00;;;;;;;10.05;8.85;;;;;;;14.36;100.00;99886.97;5009105;28;20033;-64
2022/04/17 04:11:26;;;;;;;11.38;10.10;;;;;;;13.96;100.00;99849.53;5010692;28;20484;-65
2022/04/17 04:13:52;;;;;;;11.02;9.80;;;;;;;14.02;100.00;99909.75;5009392;28;20076;-65
2022/04/17 04:16:18;;;;;;;13.05;9.30;;;;;;;13.97;100.00;99858.00;5010347;28;20095;-65
2022/04/17 04:18:43;;;;;;;11.35;10.15;;;;;;;13.70;100.00;99924.75;5010384;28;20030;-65
2022/04/17 04:21:08;;;;;;;10.00;8.95;;;;;;;13.40;100.00;99936.19;5010555;28;20077;-65
2022/04/17 04:23:35;;;;;;;10.45;9.45;;;;;;;13.42;100.00;99916.53;5010445;28;20038;-65
2022/04/17 04:26:02;;;;;;;10.50;9.38;;;;;;;13.67;100.00;99909.53;5009308;28;20030;-65
2022/04/17 04:28:36;;;;;;;11.00;9.98;;;;;;;13.03;100.00;99873.00;5010454;28;20117;-64
2022/04/17 04:31:08;;;;;;;12.30;11.10;;;;;;;12.55;100.00;99886.78;5010327;28;20109;-65
2022/04/17 04:33:38;;;;;;;11.68;10.10;;;;;;;13.09;100.00;99943.41;5010060;28;20543;-65
2022/04/17 04:36:06;;;;;;;12.02;10.05;;;;;;;12.91;100.00;99900.69;5012568;28;20109;-64
2022/04/17 04:38:31;;;;;;;12.43;10.40;;;;;;;12.88;100.00;99906.75;5014123;28;20511;-65
2022/04/17 04:40:59;;;;;;;14.23;10.13;;;;;;;13.04;100.00;99912.13;5013884;28;20030;-65
2022/04/17 04:43:24;;;;;;;12.75;10.73;;;;;;;12.34;100.00;99873.09;5013896;28;20061;-65
2022/04/17 04:46:09;;;;;;;19.60;14.90;;;;;;;13.14;100.00;99968.75;5013706;28;20444;-65
2022/04/17 04:51:25;;;;;;;15.15;13.60;;;;;;;12.70;100.00;99921.91;5013743;28;20117;-67
2022/04/17 04:53:50;;;;;;;14.68;12.95;;;;;;;12.58;100.00;99919.81;5012181;28;20029;-65
2022/04/17 04:56:16;;;;;;;14.02;12.68;;;;;;;13.11;100.00;99973.97;5012343;28;20535;-64
2022/04/17 04:58:42;;;;;;;17.40;13.45;;;;;;;13.01;100.00;99964.06;5027040;28;20088;-67
2022/04/17 05:01:08;;;;;;;14.57;13.07;;;;;;;12.90;100.00;99956.00;5010542;28;20038;-65
2022/04/17 05:03:34;;;;;;;18.45;10.50;;;;;;;13.29;100.00;99934.97;5022167;28;20045;-66
2022/04/17 05:05:59;;;;;;;16.52;12.90;;;;;;;12.44;100.00;99886.38;5012943;28;20470;-66
2022/04/17 05:08:25;;;;;;;16.38;13.52;;;;;;;13.15;100.00;99950.84;5013358;28;20034;-64
2022/04/17 05:10:51;;;;;;;15.93;12.90;;;;;;;12.71;100.00;99928.69;5012272;28;20034;-65
2022/04/17 05:13:17;;;;;;;14.75;13.07;;;;;;;13.22;100.00;99971.81;5011834;28;20667;-65
2022/04/17 05:15:42;;;;;;;18.55;13.65;;;;;;;12.97;100.00;99944.66;5002297;28;20029;-66
2022/04/17 05:18:08;;;;;;;16.42;14.02;;;;;;;12.78;100.00;99981.13;5012918;28;20141;-65
2022/04/17 05:20:34;;;;;;;15.35;13.77;;;;;;;12.88;100.00;99990.09;5011386;28;20029;-66
2022/04/17 05:23:22;;;;;;;18.23;14.43;;;;;;;12.73;100.00;99953.25;5012563;28;20034;-67
2022/04/17 05:25:51;;;;;;;17.02;14.40;;;;;;;13.01;100.00;99973.47;5011242;28;20401;-66
2022/04/17 05:28:16;;;;;;;17.35;14.23;;;;;;;12.81;100.00;99975.94;5012860;28;20052;-65
2022/04/17 05:30:43;;;;;;;19.75;13.13;;;;;;;12.05;100.00;99934.50;5013012;28;20480;-65
2022/04/17 05:33:09;;;;;;;19.48;14.63;;;;;;;12.53;100.00;99985.47;5011390;28;20495;-65
2022/04/17 05:35:35;;;;;;;15.27;12.65;;;;;;;12.57;100.00;99977.66;5012602;28;20030;-65
2022/04/17 05:38:01;;;;;;;17.00;13.57;;;;;;;12.72;100.00;99989.00;5011320;28;20480;-66
2022/04/17 05:40:27;;;;;;;16.02;13.43;;;;;;;12.64;100.00;99961.22;5011203;28;20121;-65
2022/04/17 05:42:52;;;;;;;17.95;13.93;;;;;;;12.63;100.00;99971.50;5011298;28;20026;-65
2022/04/17 05:45:18;;;;;;;19.95;14.80;;;;;;;12.14;100.00;99960.47;5011345;28;20030;-64
2022/04/17 05:47:44;;;;;;;18.25;14.00;;;;;;;12.12;100.00;99967.34;5012484;28;20559;-64
2022/04/17 05:50:09;;;;;;;19.00;14.82;;;;;;;11.60;100.00;99896.13;5012492;28;20022;-65
2022/04/17 05:52:35;;;;;;;18.88;14.32;;;;;;;11.94;100.00;99949.31;5012527;28;20030;-65
2022/04/17 05:55:01;;;;;;;19.13;14.07;;;;;;;11.64;100.00;99927.38;5012135;28;20065;-65
2022/04/17 05:57:26;;;;;;;17.42;14.02;;;;;;;11.90;100.00;99940.13;5012277;28;20171;-64
2022/04/17 05:59:52;;;;;;;16.55;13.60;;;;;;;11.18;100.00;99882.22;5012595;28;20040;-65
2022/04/17 06:02:18;;;;;;;22.55;14.63;;;;;;;11.51;100.00;99924.41;5012477;28;20057;-65
2022/04/17 06:04:43;;;;;;;16.48;13.60;;;;;;;11.10;100.00;99887.56;5012126;28;20029;-66
2022/04/17 06:07:09;;;;;;;16.85;13.27;;;;;;;11.11;100.00;99889.22;5012093;28;20049;-66
2022/04/17 06:09:35;;;;;;;16.00;12.38;;;;;;;10.76;100.00;99837.78;5011827;28;20116;-64
2022/04/17 06:12:00;;;;;;;18.10;11.73;;;;;;;11.05;100.00;99904.69;5011639;28;20026;-63
2022/04/17 06:14:26;;;;;;;19.33;13.68;;;;;;;10.88;100.00;99850.97;5010857;28;20054;-64
2022/04/17 06:16:51;;;;;;;18.85;14.23;;;;;;;11.15;100.00;99884.91;5011576;28;20076;-64
2022/04/17 06:19:17;;;;;;;18.00;13.73;;;;;;;10.67;100.00;99808.41;5011965;28;20032;-65
2022/04/17 06:21:43;;;;;;;15.57;12.68;;;;;;;11.56;100.00;99888.63;5012310;28;20030;-66
2022/04/17 06:24:08;;;;;;;17.70;12.68;;;;;;;10.94;100.00;99850.78;5011547;28;20045;-66
2022/04/17 06:26:35;;;;;;;17.83;13.38;;;;;;;11.20;100.00;99886.41;5011639;28;20065;-66
2022/04/17 06:29:07;;;;;;;16.85;13.63;;;;;;;11.36;100.00;99818.03;5011709;28;20029;-67
2022/04/17 06:31:33;;;;;;;17.65;13.00;;;;;;;11.20;100.00;99872.84;5010413;28;20037;-67
2022/04/17 06:33:59;;;;;;;18.33;14.00;;;;;;;11.07;100.00;99793.53;5011659;28;20033;-68
2022/04/17 06:36:24;;;;;;;20.50;14.32;;;;;;;10.94;100.00;99814.34;5011668;28;20030;-67
2022/04/17 06:38:50;;;;;;;21.88;15.15;;;;;;;11.41;100.00;99859.41;4993634;28;20034;-68
2022/04/17 06:41:15;;;;;;;17.58;12.82;;;;;;;10.88;100.00;99814.53;4991270;28;20025;-66
2022/04/17 06:43:40;;;;;;;17.23;13.93;;;;;;;11.39;100.00;99843.34;5004632;28;20041;-67
2022/04/17 06:46:06;;;;;;;20.50;14.57;;;;;;;11.52;100.00;99826.81;5011205;28;20033;-67
2022/04/17 06:48:31;;;;;;;17.77;14.55;;;;;;;11.28;100.00;99772.47;5010084;28;20025;-66
2022/04/17 06:50:57;;;;;;;17.30;12.98;;;;;;;11.37;100.00;99808.69;5011230;28;20038;-67
2022/04/17 06:53:22;;;;;;;17.58;12.00;;;;;;;11.76;100.00;99814.97;5011392;28;20479;-67
2022/04/17 06:55:49;;;;;;;14.95;12.15;;;;;;;11.35;100.00;99793.44;5011432;28;20032;-67
2022/04/17 06:58:16;;;;;;;14.25;12.60;;;;;;;11.28;100.00;99758.91;5010678;28;20034;-67
2022/04/17 07:00:41;;;;;;;17.73;11.98;;;;;;;11.58;100.00;99830.84;5008345;28;20038;-67
2022/04/17 07:03:06;;;;;;;17.85;12.45;;;;;;;11.68;100.00;99824.59;5008837;28;20041;-68
2022/04/17 07:05:32;;;;;;;14.60;12.05;;;;;;;11.73;100.00;99823.53;5011107;28;20034;-68
2022/04/17 07:08:00;;;;;;;19.92;11.25;;;;;;;12.07;100.00;99821.44;5009881;28;20033;-70
2022/04/17 07:10:27;;;;;;;12.07;9.98;;;;;;;11.55;100.00;99772.41;5010909;28;20030;-69
2022/04/17 07:12:53;;;;;;;10.63;9.52;;;;;;;11.73;100.00;99807.41;5010497;28;20104;-69
2022/04/17 07:15:20;;;;;;;13.30;10.40;;;;;;;11.99;100.00;99848.06;5008732;28;20052;-68
2022/04/17 07:17:46;;;;;;;11.35;9.10;;;;;;;11.97;100.00;99858.34;5009048;28;20076;-68
2022/04/17 07:20:12;;;;;;;9.25;6.97;;;;;;;11.64;100.00;99858.66;5008273;28;20132;-69
2022/04/17 07:22:40;;;;;;;10.30;7.45;;;;;;;11.78;100.00;99851.41;5009970;28;20076;-68
2022/04/17 07:25:07;;;;;;;7.72;6.93;;;;;;;11.25;100.00;99792.13;5010636;28;20046;-67
2022/04/17 07:27:36;;;;;;;8.45;7.55;;;;;;;11.45;100.00;99787.16;5008795;28;20030;-69
2022/04/17 07:30:09;;;;;;;9.45;7.85;;;;;;;11.76;100.00;99842.97;5008448;28;20480;-69
2022/04/17 07:32:34;;;;;;;7.20;6.30;;;;;;;11.47;100.00;99841.38;5010381;28;20068;-69
2022/04/17 07:35:00;;;;;;;6.72;5.60;;;;;;;11.54;100.00;99852.19;5008909;28;20053;-69
2022/04/17 07:37:27;;;;;;;7.63;6.10;;;;;;;11.40;100.00;99796.66;5010303;28;20384;-69
2022/04/17 07:39:52;;;;;;;7.63;6.68;;;;;;;11.73;100.00;99835.44;5009410;28;20036;-68
2022/04/17 07:42:19;;;;;;;9.20;7.47;;;;;;;11.76;100.00;99850.63;5010888;28;20442;-68
2022/04/17 07:44:45;;;;;;;8.95;6.75;;;;;;;11.46;100.00;99849.06;5010797;28;20462;-69
2022/04/17 07:47:10;;;;;;;7.65;6.38;;;;;;;11.26;100.00;99812.41;5009513;28;20034;-69
2022/04/17 07:49:36;;;;;;;7.53;5.88;;;;;;;11.26;100.00;99824.28;5010438;28;20053;-69
2022/04/17 07:52:01;;;;;;;7.45;5.63;;;;;;;11.48;100.00;99858.34;5010984;28;20069;-68
2022/04/17 07:54:27;;;;;;;8.02;6.45;;;;;;;11.59;100.00;99863.06;5010670;28;20091;-69
2022/04/17 07:56:52;;;;;;;6.82;5.95;;;;;;;11.60;100.00;99841.81;5009593;28;20059;-68
2022/04/17 07:59:18;;;;;;;7.50;5.82;;;;;;;11.38;100.00;99792.50;5010723;28;20042;-69
2022/04/17 08:01:45;;;;;;;6.65;5.50;;;;;;;11.27;100.00;99780.13;5010677;28;20034;-68
2022/04/17 08:04:11;;;;;;;6.30;4.20;;;;;;;11.19;100.00;99815.22;5009155;28;20026;-68
2022/04/17 08:06:37;;;;;;;6.80;4.35;;;;;;;11.12;100.00;99762.84;5011040;28;20406;-69
2022/04/17 08:09:03;;;;;;;5.30;4.30;;;;;;;10.86;100.00;99737.44;5026348;28;20481;-66
2022/04/17 08:11:29;;;;;;;6.20;4.60;;;;;;;11.06;100.00;99738.47;5009990;28;20046;-68
2022/04/17 08:13:55;;;;;;;6.82;4.80;;;;;;;11.20;100.00;99750.72;5004131;28;20093;-68
2022/04/17 08:16:20;;;;;;;6.43;4.65;;;;;;;11.79;100.00;99810.59;5014022;28;20476;-68
2022/04/17 08:18:46;;;;;;;4.15;3.63;;;;;;;11.68;100.00;99820.34;5014059;28;20037;-68
2022/04/17 08:21:11;;;;;;;4.07;3.15;;;;;;;11.57;100.00;99821.56;5012989;28;20088;-67
2022/04/17 08:23:37;;;;;;;3.85;3.20;;;;;;;11.64;100.00;99793.28;5014041;28;20034;-67
2022/04/17 08:26:06;;;;;;;3.65;2.97;;;;;;;11.76;100.00;99810.72;5045869;28;20026;-68
2022/04/17 08:28:32;;;;;;;4.45;3.15;;;;;;;11.97;100.00;99827.75;5012849;28;20022;-68
2022/04/17 08:30:57;;;;;;;4.40;2.83;;;;;;;11.50;100.00;99739.47;5011763;28;20431;-69
2022/04/17 08:33:24;;;;;;;4.22;2.80;;;;;;;11.85;100.00;99824.81;5012245;28;20415;-67
2022/04/17 08:35:50;;;;;;;3.53;2.70;;;;;;;11.84;100.00;99844.38;5013365;28;20050;-68
2022/04/17 08:38:16;;;;;;;4.13;2.92;;;;;;;11.89;100.00;99809.38;5013456;28;20061;-67
2022/04/17 08:40:41;;;;;;;3.33;2.97;;;;;;;11.98;100.00;99823.50;5028712;28;20025;-68
2022/04/17 08:43:10;;;;;;;2.85;2.35;;;;;;;12.31;100.00;99852.84;5013909;28;20064;-68
2022/04/17 08:45:37;;;;;;;2.50;2.28;;;;;;;12.28;100.00;99860.59;5013446;28;20559;-67
2022/04/17 08:48:03;;;;;;;3.00;2.30;;;;;;;12.13;100.00;99873.91;5013150;28;20400;-68
2022/04/17 08:50:30;;;;;;;3.17;2.10;;;;;;;11.55;100.00;99821.59;5013493;28;20467;-68
2022/04/17 08:52:58;;;;;;;3.90;2.80;;;;;;;11.87;100.00;99882.47;5012075;28;20095;-68
2022/04/17 08:55:24;;;;;;;3.70;2.17;;;;;;;11.90;100.00;99879.81;5013299;28;20062;-68
2022/04/17 08:57:50;;;;;;;3.95;3.03;;;;;;;12.20;100.00;99878.72;5012222;28;20486;-68
2022/04/17 09:00:17;;;;;;;4.15;2.30;;;;;;;11.81;100.00;99815.63;4662700;28;9999693;-67
2022/04/17 09:02:43;;;;;;;2.95;2.15;;;;;;;11.70;100.00;99799.91;5008986;28;20053;-68
2022/04/17 09:05:11;;;;;;;2.13;1.67;;;;;;;12.05;100.00;99852.94;5010252;28;20498;-66
2022/04/17 09:07:41;;;;;;;4.80;2.50;;;;;;;12.22;100.00;99849.81;5008912;28;20073;-67
2022/04/17 09:10:07;;;;;;;2.13;1.83;;;;;;;12.07;100.00;99858.81;5010457;28;20060;-66
2022/04/17 09:12:33;;;;;;;2.42;1.75;;;;;;;11.86;100.00;99824.78;5009569;28;20606;-67
2022/04/17 09:14:59;;;;;;;2.95;1.42;;;;;;;11.73;100.00;99803.16;5009513;28;20064;-67
2022/04/17 09:17:34;;;;;;;1.70;1.50;;;;;;;11.96;100.00;99805.69;5010109;28;20026;-66
2022/04/17 09:20:00;;;;;;;2.58;2.08;;;;;;;12.21;100.00;99864.25;5009906;28;20725;-66
2022/04/17 09:22:49;;;;;;;3.33;2.05;;;;;;;12.23;100.00;99874.38;5004921;28;20164;-66
2022/04/17 09:25:14;;;;;;;2.30;1.80;;;;;;;11.78;100.00;99818.28;4990075;28;20030;-64
2022/04/17 09:27:57;;;;;;;2.10;1.63;;;;;;;11.83;100.00;99834.22;5005376;28;20496;-68
2022/04/17 09:30:38;;;;;;;2.83;1.80;;;;;;;11.71;100.00;99817.66;4988507;28;20457;-67
2022/04/17 09:33:14;;;;;;;2.22;1.70;;;;;;;11.97;100.00;99865.97;5005139;28;20030;-67
2022/04/17 09:35:53;;;;;;;3.45;1.40;;;;;;;12.00;100.00;99872.69;5004138;28;20034;-68
2022/04/17 09:38:23;;;;;;;2.83;2.10;;;;;;;11.47;100.00;99790.47;4990133;28;20108;-67
2022/04/17 09:40:49;;;;;;;3.47;2.13;;;;;;;11.98;100.00;99857.44;4990031;28;20177;-67
2022/04/17 09:43:17;;;;;;;2.63;2.00;;;;;;;11.74;100.00;99830.31;4997262;28;20120;-67
2022/04/17 09:46:04;;;;;;;2.28;1.98;;;;;;;11.89;100.00;99852.69;5006337;28;20487;-67
2022/04/17 09:48:40;;;;;;;2.22;1.77;;;;;;;11.89;100.00;99854.38;5008316;28;20026;-67
2022/04/17 09:51:25;;;;;;;3.38;1.77;;;;;;;11.87;100.00;99835.78;5008950;28;20037;-67
2022/04/17 09:54:08;;;;;;;2.20;1.90;;;;;;;11.65;100.00;99799.19;5008738;28;20028;-69
2022/04/17 09:56:41;;;;;;;2.00;1.70;;;;;;;11.93;100.00;99840.66;5007208;28;20040;-68
2022/04/17 09:59:27;;;;;;;2.38;1.80;;;;;;;12.12;100.00;99850.13;5007554;28;20037;-68
2022/04/17 10:01:54;;;;;;;2.53;1.77;;;;;;;11.80;100.00;99789.34;5028592;28;20041;-69
2022/04/17 10:04:22;;;;;;;2.38;1.75;;;;;;;12.05;100.00;99835.13;5043682;28;20116;-67
2022/04/17 10:06:55;;;;;;;2.60;1.60;;;;;;;11.98;100.00;99824.31;5027105;28;20039;-67
2022/04/17 10:09:21;;;;;;;2.65;1.92;;;;;;;11.75;100.00;99820.94;5028095;28;20037;-67
2022/04/17 10:11:49;;;;;;;2.20;1.90;;;;;;;11.83;100.00;99829.97;5028038;28;20030;-67
2022/04/17 10:14:15;;;;;;;3.35;1.98;;;;;;;11.94;100.00;99832.94;5028052;28;20144;-67
2022/04/17 10:16:42;;;;;;;4.07;2.50;;;;;;;11.26;100.00;99735.22;5043395;28;20037;-66
2022/04/17 10:19:13;;;;;;;4.80;3.28;;;;;;;11.71;100.00;99804.94;5028062;28;20126;-66
2022/04/17 10:21:40;;;;;;;7.35;4.47;;;;;;;11.25;100.00;99742.03;5028424;28;20029;-68
2022/04/17 10:24:10;;;;;;;7.60;5.70;;;;;;;11.62;100.00;99773.84;5028481;28;20041;-70
2022/04/17 10:26:43;;;;;;;5.00;3.78;;;;;;;11.79;100.00;99785.13;5028994;28;20209;-69
2022/04/17 10:29:31;;;;;;;2.75;2.13;;;;;;;11.83;100.00;99775.63;5039241;28;20124;-65
2022/04/17 10:32:09;;;;;;;3.10;2.20;;;;;;;11.66;100.00;99791.53;5000151;28;20038;-66
2022/04/17 10:34:43;;;;;;;2.83;2.30;;;;;;;11.71;100.00;99796.44;5023185;28;20818;-67
2022/04/17 10:37:30;;;;;;;3.53;1.67;;;;;;;11.32;100.00;99765.56;5008226;28;20067;-66
2022/04/17 10:39:58;;;;;;;2.20;1.42;;;;;;;11.27;100.00;99796.25;5008097;28;20038;-65
2022/04/17 10:42:34;;;;;;;1.85;1.67;;;;;;;11.08;100.00;99763.84;5006909;28;20107;-65
2022/04/17 10:45:05;;;;;;;2.72;1.75;;;;;;;11.11;100.00;99824.81;5008481;28;20065;-69
2022/04/17 10:47:30;;;;;;;2.63;1.60;;;;;;;11.08;100.00;99817.25;5008293;28;20037;-68
2022/04/17 10:49:57;;;;;;;4.63;3.35;;;;;;;10.84;100.00;99772.28;5007005;28;20033;-67
2022/04/17 10:52:31;;;;;;;3.72;2.47;;;;;;;11.07;100.00;99826.59;5023163;28;20411;-64
2022/04/17 10:55:07;;;;;;;2.40;1.63;;;;;;;10.63;100.00;99785.69;5008093;28;20041;-66
2022/04/17 10:57:42;;;;;;;3.67;2.60;;;;;;;10.85;100.00;99846.00;5008110;28;20061;-66
2022/04/17 11:00:27;;;;;;;1.88;1.35;;;;;;;10.63;100.00;99867.88;5017110;28;20876;-66
2022/04/17 11:02:53;;;;;;;3.00;1.67;;;;;;;10.60;100.00;99869.66;5027581;28;20052;-67
2022/04/17 11:08:22;;;;;;;2.30;1.70;;;;;;;9.82;100.00;99763.53;5027706;28;20385;-66
2022/04/17 11:11:03;;;;;;;2.00;1.42;;;;;;;10.03;100.00;99839.94;5027457;28;20467;-66
2022/04/17 11:13:28;;;;;;;1.80;1.10;;;;;;;10.13;100.00;99854.09;5027502;28;20037;-67
2022/04/17 11:15:58;;;;;;;2.22;1.60;;;;;;;10.09;100.00;99862.63;5027169;28;20037;-65
2022/04/17 11:18:27;;;;;;;2.58;1.40;;;;;;;9.95;100.00;99864.72;5027248;28;20029;-66
2022/04/17 11:20:54;;;;;;;3.58;1.60;;;;;;;10.02;100.00;99862.84;5027324;28;20034;-65
2022/04/17 11:23:47;;;;;;;1.88;1.35;;;;;;;9.94;100.00;99883.38;5026816;28;20026;-66
2022/04/17 11:26:12;;;;;;;2.00;1.33;;;;;;;9.76;100.00;99870.31;5027589;28;20145;-66
2022/04/17 11:28:38;;;;;;;2.40;1.65;;;;;;;10.00;100.00;99893.34;5042151;28;20057;-67
2022/04/17 11:31:03;;;;;;;3.30;1.92;;;;;;;9.57;100.00;99852.19;5027270;28;20522;-66
2022/04/17 11:33:30;;;;;;;3.33;1.83;;;;;;;9.76;100.00;99881.31;5025692;28;20033;-66
2022/04/17 11:35:56;;;;;;;3.08;1.73;;;;;;;9.60;100.00;99883.44;5007239;28;20034;-66
2022/04/17 11:38:22;;;;;;;1.80;1.40;;;;;;;9.54;100.00;99887.81;5007652;28;20042;-66